Tropical Cyclones
[Index]
Main Index Home Page Stock Weather Photos Extreme Storms Discussion Storm News and Storm Chasing Reports Tropical Cyclones / Hurricanes / Typhoons Weather Data and Links Wild Fires / Bushfires Weather Observation Techniques Weather Picture Catalogue Tornado Pictures and Reports Stock Video Footage and DVDs for sale
Season 1970-1971 Tropical Cyclone YVONNE Track Map
Season 1970-1971 Summaries: [BoM-AU] [JTWC-AU] [JTWC-SIO] [JTWC-SPAC] [JTWC-SH]
<<- Previous TC | BoM 1970-1971 Season | Next TC ->>

click for intensity scale information  Lat/long Grid: Show Hide

 Date Labels: Show Hide

Bureau of Meteorology Tropical Cyclone Data

Name: YVONNE
Number: 478 / 197071_17

19 Feb 1971 00:00 UTC to 24 Feb 1971 00:00 UTC

    date/time    lat    long    hPa   cat  kts
1971-02-19 00   13.0    93.0   1002                     
1971-02-19 03   13.0    93.1   1002                     
1971-02-19 06   13.1    93.2   1002                     
1971-02-19 09   13.1    93.3   1002                     
1971-02-19 12   13.2    93.4   1002                     
1971-02-19 15   13.2    93.5   1002                     
1971-02-19 18   13.3    93.6   1002                     
1971-02-19 21   13.4    93.8   1002                     
1971-02-20 00   13.5    92.0   1002                     
1971-02-20 03   13.5    91.9   1002                     
1971-02-20 06   13.6    91.8   1002                     
1971-02-20 09   13.6    91.7   1002                     
1971-02-20 12   13.7    91.6   1002                     
1971-02-20 15   13.7    91.5   1002                     
1971-02-20 18   13.8    91.4   1002                     
1971-02-20 21   13.9    91.2   1002                     
1971-02-21 00   14.0    91.0   1002                     
1971-02-21 03   14.3    90.7   1000                     
1971-02-21 06   14.7    90.1    998                     
1971-02-21 09   15.5    89.3    996                     
1971-02-21 12   16.3    88.5    994    1                
1971-02-21 15   16.9    87.9    992    1                
1971-02-21 18   17.3    87.3    990    1                
1971-02-21 21   17.7    86.6    987    1                
1971-02-22 00   18.0    86.0    985    2                
1971-02-22 03   18.3    85.4    983    2                
1971-02-22 06   18.6    84.8    980    2                
1971-02-22 09   18.8    84.2    979    2                
1971-02-22 12   19.0    83.6    978    2                
1971-02-22 15   19.2    83.0    977    2                
1971-02-22 18   19.4    82.4    976    2                
1971-02-22 21   19.6    81.8    975    2                
1971-02-23 00   19.8    81.5    975    2                
1971-02-23 03   19.8    81.1    975    2                
1971-02-23 06   19.8    80.5    975    2                
1971-02-23 09   19.7    79.9    976    2                
1971-02-23 12   19.6    79.1    976    2                
1971-02-23 15   19.5    78.3    977    2                
1971-02-23 18   19.4    77.5    978    2                
1971-02-23 21   19.2    76.8    979    2                
1971-02-24 00   19.0    76.5    980    2                
Winds are 10-min average.

Tropical cyclone tracks developed by Michael Bath using data from the Bureau of Meteorology and Google Maps.


[Australian Severe Weather index] [Copyright Notice] [Email Contacts] [Search This Site] [Privacy Policy]
Document: tropical_cyclone_yvonne.htm Updated: 30 May 2013